| time (UTC) | temp F | wind direction | speed knots | gust knots | rain 1hr in | rain 24hr in | rain mn in | humidity % | barometer mb |
| 20260507023002 | 78 | 360 | 5.2 | 14.8 | 0.00 | 0.00 | 0.00 | 33 | 1009.4 |
| 20260507021618 | 79 | 360 | 2.6 | 13.9 | 0.00 | 0.00 | 0.00 | 33 | 1009.3 |
| 20260507020107 | 80 | 360 | 1.7 | 9.6 | 0.00 | 0.00 | 0.00 | 31 | 1009.0 |
| 20260507014615 | 81 | 360 | 2.6 | 11.3 | 0.00 | 0.00 | 0.00 | 29 | 1009.0 |
| 20260507013058 | 82 | 360 | 1.7 | 12.2 | 0.00 | 0.00 | 0.00 | 27 | 1008.9 |
| 20260507011557 | 84 | 360 | 0.9 | 10.4 | 0.00 | 0.00 | 0.00 | 17 | 1008.9 |
| 20260507010108 | 84 | 360 | 0.0 | 3.5 | 0.00 | 0.00 | 0.00 | 16 | 1008.9 |
| 20260507004556 | 85 | 360 | 5.2 | 9.6 | 0.00 | 0.00 | 0.00 | 15 | 1008.8 |
| 20260507003055 | 85 | 360 | 0.0 | 7.0 | 0.00 | 0.00 | 0.00 | 15 | 1008.8 |
| 20260507001605 | 85 | 360 | 0.0 | 9.6 | 0.00 | 0.00 | 0.00 | 15 | 1008.7 |
| 20260507000055 | 85 | 360 | 0.0 | 8.7 | 0.00 | 0.00 | 0.00 | 15 | 1008.7 |
| 20260506234555 | 85 | 360 | 0.0 | 10.4 | 0.00 | 0.00 | 0.00 | 14 | 1008.7 |
| 20260506233056 | 86 | 360 | 0.0 | 9.6 | 0.00 | 0.00 | 0.00 | 15 | 1008.7 |
| 20260506231553 | 85 | 244 | 0.0 | 11.3 | 0.00 | 0.00 | 0.00 | 14 | 1008.8 |
| 20260506230100 | 86 | 360 | 0.0 | 7.8 | 0.00 | 0.00 | 0.00 | 14 | 1008.8 |
| 20260506224550 | 86 | 360 | 1.7 | 10.4 | 0.00 | 0.00 | 0.00 | 15 | 1009.0 |
| 20260506223049 | 86 | 256 | 0.0 | 8.7 | 0.00 | 0.00 | 0.00 | 15 | 1009.0 |
| 20260506221549 | 85 | 209 | 0.9 | 16.5 | 0.00 | 0.00 | 0.00 | 16 | 1009.1 |
| 20260506220051 | 86 | 255 | 7.0 | 10.4 | 0.00 | 0.00 | 0.00 | 15 | 1009.1 |
| 20260506214546 | 86 | 360 | 0.0 | 0.9 | 0.00 | 0.00 | 0.00 | 15 | 1009.3 |
| 20260506213043 | 85 | 233 | 2.6 | 9.6 | 0.00 | 0.00 | 0.00 | 14 | 1009.6 |
| 20260506211542 | 86 | 198 | 0.0 | 10.4 | 0.00 | 0.00 | 0.00 | 14 | 1009.8 |
| 20260506210043 | 85 | 360 | 0.9 | 7.8 | 0.00 | 0.00 | 0.00 | 15 | 1010.0 |
| 20260506204537 | 85 | 360 | 4.3 | 11.3 | 0.00 | 0.00 | 0.00 | 17 | 1010.0 |
| 20260506203034 | 84 | 360 | 0.0 | 10.4 | 0.00 | 0.00 | 0.00 | 18 | 1010.3 |
| 20260506201542 | 84 | 239 | 0.0 | 1.7 | 0.00 | 0.00 | 0.00 | 19 | 1010.6 |
| 20260506200031 | 83 | 360 | 0.0 | 0.9 | 0.00 | 0.00 | 0.00 | 18 | 1010.7 |
| 20260506194532 | 82 | 360 | 0.0 | 4.3 | 0.00 | 0.00 | 0.00 | 20 | 1010.9 |
| 20260506193030 | 82 | 360 | 0.0 | 9.6 | 0.00 | 0.00 | 0.00 | 19 | 1011.1 |
| 20260506191527 | 81 | 261 | 0.9 | 7.8 | 0.00 | 0.00 | 0.00 | 20 | 1011.3 |
| 20260506190024 | 80 | 360 | 0.0 | 0.9 | 0.00 | 0.00 | 0.00 | 21 | 1011.4 |
| 20260506184523 | 80 | 176 | 0.0 | 5.2 | 0.00 | 0.00 | 0.00 | 21 | 1011.5 |
| 20260506183022 | 79 | 42 | 0.0 | 5.2 | 0.00 | 0.00 | 0.00 | 22 | 1011.6 |
| 20260506181519 | 82 | 360 | 0.0 | 0.0 | 0.00 | 0.00 | 0.00 | 21 | 1011.8 |
| 20260506180016 | 79 | 360 | 0.0 | 0.0 | 0.00 | 0.00 | 0.00 | 23 | 1012.0 |
| 20260506174512 | 79 | 138 | 0.0 | 0.0 | 0.00 | 0.00 | 0.00 | 23 | 1012.0 |
| 20260506173008 | 79 | 360 | 0.0 | 0.0 | 0.00 | 0.00 | 0.00 | 23 | 1012.0 |
| 20260506171504 | 79 | 360 | 0.0 | 0.0 | 0.00 | 0.00 | 0.00 | 24 | 1012.1 |
| 20260506164556 | 77 | 360 | 0.0 | 0.0 | 0.00 | 0.00 | 0.00 | 26 | 1012.1 |
| 20260506163102 | 75 | 360 | 0.0 | 0.0 | 0.00 | 0.00 | 0.00 | 29 | 1012.0 |
| 20260506161548 | 75 | 360 | 0.0 | 5.2 | 0.00 | 0.00 | 0.00 | 30 | 1012.0 |
| 20260506160044 | 74 | 360 | 0.0 | 3.5 | 0.00 | 0.00 | 0.00 | 31 | 1011.9 |
| 20260506154545 | 73 | 10 | 0.0 | 7.0 | 0.00 | 0.00 | 0.00 | 32 | 1011.9 |
| 20260506153039 | 72 | 360 | 0.0 | 9.6 | 0.00 | 0.00 | 0.00 | 33 | 1012.1 |
| 20260506151530 | 70 | 11 | 0.9 | 8.7 | 0.00 | 0.00 | 0.00 | 35 | 1012.1 |
| 20260506150031 | 69 | 360 | 2.6 | 11.3 | 0.00 | 0.00 | 0.00 | 36 | 1012.1 |
| 20260506144522 | 67 | 360 | 1.7 | 9.6 | 0.00 | 0.00 | 0.00 | 38 | 1012.1 |
| 20260506143019 | 66 | 15 | 0.9 | 7.0 | 0.00 | 0.00 | 0.00 | 40 | 1012.1 |
| 20260506141514 | 65 | 360 | 0.0 | 7.0 | 0.00 | 0.00 | 0.00 | 41 | 1012.0 |
| 20260506140010 | 63 | 360 | 0.0 | 7.0 | 0.00 | 0.00 | 0.00 | 44 | 1012.0 |
| 20260506134507 | 60 | 13 | 0.0 | 1.7 | 0.00 | 0.00 | 0.00 | 48 | 1011.9 |
| 20260506133002 | 58 | 360 | 0.0 | 0.0 | 0.00 | 0.00 | 0.00 | 51 | 1011.9 |
| 20260506131559 | 55 | 360 | 0.0 | 0.9 | 0.00 | 0.00 | 0.00 | 55 | 1011.7 |
| 20260506130055 | 54 | 360 | 0.0 | 0.0 | 0.00 | 0.00 | 0.00 | 57 | 1011.5 |
| 20260506124550 | 53 | 360 | 0.0 | 0.9 | 0.00 | 0.00 | 0.00 | 58 | 1011.4 |
| 20260506123048 | 54 | 360 | 0.0 | 0.0 | 0.00 | 0.00 | 0.00 | 56 | 1011.3 |
| 20260506121544 | 56 | 360 | 0.0 | 0.0 | 0.00 | 0.00 | 0.00 | 53 | 1011.1 |
| 20260506120042 | 57 | 360 | 0.0 | 0.0 | 0.00 | 0.00 | 0.00 | 51 | 1011.0 |
| 20260506114539 | 58 | 360 | 0.0 | 0.0 | 0.00 | 0.00 | 0.00 | 50 | 1010.9 |
| 20260506113036 | 58 | 360 | 0.0 | 0.0 | 0.00 | 0.00 | 0.00 | 50 | 1010.8 |
| 20260506111540 | 59 | 360 | 0.0 | 0.0 | 0.00 | 0.00 | 0.00 | 49 | 1010.8 |
| 20260506110033 | 59 | 360 | 0.0 | 0.0 | 0.00 | 0.00 | 0.00 | 48 | 1010.9 |
| 20260506104529 | 60 | 360 | 0.0 | 0.0 | 0.00 | 0.00 | 0.00 | 47 | 1010.8 |
| 20260506103029 | 61 | 360 | 0.0 | 0.0 | 0.00 | 0.00 | 0.00 | 46 | 1010.8 |
| 20260506101529 | 62 | 360 | 0.0 | 0.0 | 0.00 | 0.00 | 0.00 | 46 | 1010.7 |
| 20260506100027 | 61 | 360 | 0.0 | 0.0 | 0.00 | 0.00 | 0.00 | 46 | 1010.7 |
| 20260506094527 | 61 | 360 | 0.0 | 0.0 | 0.00 | 0.00 | 0.00 | 46 | 1010.7 |
| 20260506093043 | 61 | 360 | 0.0 | 0.0 | 0.00 | 0.00 | 0.00 | 46 | 1010.7 |
| 20260506091525 | 60 | 360 | 0.0 | 0.0 | 0.00 | 0.00 | 0.00 | 47 | 1010.7 |
| 20260506090021 | 62 | 360 | 0.0 | 0.0 | 0.00 | 0.00 | 0.00 | 44 | 1010.8 |
| 20260506084520 | 62 | 360 | 0.0 | 0.0 | 0.00 | 0.00 | 0.00 | 44 | 1010.8 |
| 20260506083017 | 63 | 360 | 0.0 | 0.0 | 0.00 | 0.00 | 0.00 | 42 | 1010.7 |
| 20260506081514 | 65 | 360 | 0.0 | 0.0 | 0.00 | 0.00 | 0.00 | 41 | 1010.9 |
| 20260506073011 | 64 | 360 | 0.0 | 0.0 | 0.00 | 0.00 | 0.00 | 41 | 1011.1 |
| 20260506071508 | 66 | 360 | 0.0 | 0.0 | 0.00 | 0.00 | 0.00 | 39 | 1010.9 |
| 20260506061502 | 68 | 360 | 0.0 | 0.0 | 0.00 | 0.00 | 0.00 | 37 | 1010.9 |
| 20260506050103 | 71 | 360 | 0.0 | 0.9 | 0.00 | 0.00 | 0.00 | 35 | 1010.4 |
| 20260506044613 | 71 | 360 | 0.0 | 2.6 | 0.00 | 0.00 | 0.00 | 35 | 1010.4 |
| 20260506043059 | 72 | 360 | 0.0 | 8.7 | 0.00 | 0.00 | 0.00 | 36 | 1010.3 |
| 20260506041609 | 72 | 360 | 0.0 | 10.4 | 0.00 | 0.00 | 0.00 | 39 | 1010.1 |
| 20260506034602 | 73 | 360 | 0.0 | 10.4 | 0.00 | 0.00 | 0.00 | 40 | 1009.5 |
| 20260506033058 | 73 | 360 | 0.0 | 4.3 | 0.00 | 0.00 | 0.00 | 41 | 1009.6 |
| 20260506031600 | 73 | 360 | 0.0 | 10.4 | 0.00 | 0.00 | 0.00 | 40 | 1009.4 |
| 20260506030057 | 74 | 360 | 0.9 | 12.2 | 0.00 | 0.00 | 0.00 | 39 | 1009.2 |
| 20260506024603 | 75 | 360 | 3.5 | 13.0 | 0.00 | 0.00 | 0.00 | 36 | 1009.0 |